Time;durP1;ratioP1;P1;durP2;ratioP2;P2;SDS_P1;SDS_P2;PMS_P1;PMS_P2;Temp;Humidity;BMP_temperature;BMP_pressure;BME280_temperature;BME280_humidity;BME280_pressure;Samples;Min_cycle;Max_cycle;Signal;HPM_P1;HPM_P2
2022/02/23 00:00:16;;;;;;;4.20;4.10;;;8.60;56.70;;;;;;5088696;28;20178;-77
2022/02/23 00:02:41;;;;;;;4.90;4.70;;;8.60;57.30;;;;;;5094476;28;20415;-77
2022/02/23 00:05:07;;;;;;;4.70;4.50;;;8.70;57.00;;;;;;5093433;28;20525;-77
2022/02/23 00:07:33;;;;;;;4.20;4.10;;;8.70;57.00;;;;;;5094411;28;20209;-77
2022/02/23 00:09:59;;;;;;;4.53;4.40;;;8.70;56.90;;;;;;5094268;28;20411;-77
2022/02/23 00:12:24;;;;;;;4.70;4.60;;;8.60;57.60;;;;;;5093007;28;20166;-78
2022/02/23 00:14:50;;;;;;;5.53;4.17;;;8.70;57.70;;;;;;5093310;28;20178;-77
2022/02/23 00:17:15;;;;;;;4.13;4.03;;;8.60;57.80;;;;;;5093873;28;20641;-77
2022/02/23 00:19:41;;;;;;;4.47;4.27;;;8.60;57.80;;;;;;5092963;28;20180;-78
2022/02/23 00:22:07;;;;;;;4.80;4.60;;;8.60;58.00;;;;;;5093332;28;20863;-77
2022/02/23 00:24:32;;;;;;;4.00;3.90;;;8.60;58.40;;;;;;5093330;28;20195;-77
2022/02/23 00:26:58;;;;;;;4.60;4.40;;;8.70;58.20;;;;;;5093173;28;20213;-77
2022/02/23 00:29:23;;;;;;;4.43;4.23;;;8.60;59.00;;;;;;5092651;28;20167;-77
2022/02/23 00:31:49;;;;;;;4.23;4.03;;;8.60;58.70;;;;;;5092696;28;20170;-77
2022/02/23 00:34:15;;;;;;;4.30;4.10;;;8.60;59.20;;;;;;5092564;28;20173;-77
2022/02/23 00:36:41;;;;;;;4.50;4.40;;;8.60;59.00;;;;;;5092097;28;20181;-78
2022/02/23 00:39:07;;;;;;;4.47;4.17;;;8.60;59.10;;;;;;5092472;28;20630;-77
2022/02/23 00:41:33;;;;;;;5.00;4.70;;;8.60;59.60;;;;;;5092004;28;20423;-77
2022/02/23 00:43:58;;;;;;;4.30;3.90;;;8.70;59.40;;;;;;5110970;28;20411;-77
2022/02/23 00:46:24;;;;;;;4.10;4.00;;;8.70;59.40;;;;;;5092829;28;20279;-77
2022/02/23 00:48:50;;;;;;;4.23;3.93;;;8.70;59.70;;;;;;5092445;28;20261;-78
2022/02/23 00:51:15;;;;;;;4.47;4.00;;;8.70;60.70;;;;;;5092329;28;20738;-77
2022/02/23 00:53:41;;;;;;;3.57;3.47;;;8.60;60.70;;;;;;5092337;28;20221;-77
2022/02/23 00:56:07;;;;;;;4.50;4.10;;;8.70;61.80;;;;;;5092687;28;20579;-77
2022/02/23 00:58:32;;;;;;;4.47;4.17;;;8.80;62.10;;;;;;5110182;28;20203;-77
2022/02/23 01:00:58;;;;;;;3.63;3.50;;;8.70;62.90;;;;;;5092054;28;20178;-78
2022/02/23 01:03:24;;;;;;;4.03;3.70;;;8.70;63.10;;;;;;5092594;28;20583;-77
2022/02/23 01:05:50;;;;;;;4.13;3.83;;;8.70;63.30;;;;;;5091739;28;20654;-77
2022/02/23 01:08:15;;;;;;;4.60;4.40;;;8.70;63.80;;;;;;5091727;28;20671;-77
2022/02/23 01:10:41;;;;;;;4.50;4.30;;;8.70;63.90;;;;;;5091524;28;20657;-77
2022/02/23 01:13:06;;;;;;;4.27;4.17;;;8.70;63.50;;;;;;5091503;28;20174;-77
2022/02/23 01:15:32;;;;;;;4.90;4.50;;;8.70;63.60;;;;;;5091905;28;20169;-77
2022/02/23 01:17:58;;;;;;;4.00;3.80;;;8.70;63.70;;;;;;5091167;28;20270;-77
2022/02/23 01:20:24;;;;;;;4.50;4.30;;;8.70;63.80;;;;;;5090150;28;20573;-77
2022/02/23 01:22:52;;;;;;;4.40;4.30;;;8.70;64.00;;;;;;5091815;28;20174;-77
2022/02/23 01:25:17;;;;;;;3.73;3.63;;;8.70;64.50;;;;;;5090672;28;20177;-78
2022/02/23 01:27:43;;;;;;;4.17;4.07;;;8.60;65.30;;;;;;5091192;28;20456;-78
2022/02/23 01:30:09;;;;;;;4.10;3.90;;;8.60;66.20;;;;;;5091730;28;20775;-78
2022/02/23 01:32:35;;;;;;;3.60;3.50;;;8.60;65.90;;;;;;5090871;28;20567;-77
2022/02/23 01:35:01;;;;;;;3.97;3.87;;;8.60;66.80;;;;;;5091244;28;20570;-77
2022/02/23 01:37:27;;;;;;;4.03;3.83;;;8.60;67.80;;;;;;5090918;28;20217;-77
2022/02/23 01:39:53;;;;;;;4.40;4.20;;;8.60;68.30;;;;;;5090524;28;20255;-77
2022/02/23 01:42:19;;;;;;;3.73;3.60;;;8.60;68.10;;;;;;5090413;28;20428;-77
2022/02/23 01:44:45;;;;;;;3.90;3.80;;;8.60;68.20;;;;;;5091285;28;20178;-77
2022/02/23 01:47:11;;;;;;;4.00;3.73;;;8.60;68.10;;;;;;5090748;28;20204;-77
2022/02/23 01:49:37;;;;;;;4.37;4.10;;;8.60;68.60;;;;;;5090574;28;20489;-77
2022/02/23 01:52:03;;;;;;;3.83;3.73;;;8.70;68.70;;;;;;5091038;28;20915;-77
2022/02/23 01:54:29;;;;;;;4.40;4.20;;;8.80;67.00;;;;;;5091199;28;20173;-77
2022/02/23 01:56:55;;;;;;;5.20;4.90;;;8.60;57.80;;;;;;5090091;28;20422;-75
2022/02/23 01:59:20;;;;;;;5.60;5.20;;;8.30;58.40;;;;;;5091261;28;20425;-76
2022/02/23 02:01:46;;;;;;;6.07;5.07;;;8.00;62.20;;;;;;5090995;28;20182;-76
2022/02/23 02:04:12;;;;;;;4.80;4.60;;;7.70;63.40;;;;;;5090188;28;20204;-77
2022/02/23 02:06:37;;;;;;;5.57;5.07;;;7.20;64.60;;;;;;5090592;28;20204;-77
2022/02/23 02:09:03;;;;;;;5.13;4.73;;;7.00;69.50;;;;;;5090047;28;20170;-75
2022/02/23 02:11:29;;;;;;;5.50;5.00;;;6.70;74.20;;;;;;5090099;28;20447;-76
2022/02/23 02:13:54;;;;;;;4.83;4.53;;;6.70;74.20;;;;;;5090122;28;20550;-75
2022/02/23 02:16:20;;;;;;;5.37;4.67;;;6.50;76.80;;;;;;5091489;28;20589;-76
2022/02/23 02:18:46;;;;;;;9.33;5.20;;;6.50;78.10;;;;;;5089746;28;20623;-76
2022/02/23 02:21:11;;;;;;;6.57;5.20;;;6.60;75.10;;;;;;5090169;28;20177;-76
2022/02/23 02:23:37;;;;;;;5.10;4.70;;;6.50;73.30;;;;;;5090224;28;20427;-76
2022/02/23 02:26:03;;;;;;;6.20;5.77;;;6.50;72.50;;;;;;5090106;28;20212;-76
2022/02/23 02:28:28;;;;;;;4.97;4.57;;;6.50;73.20;;;;;;5089965;28;20269;-76
2022/02/23 02:30:54;;;;;;;8.20;4.97;;;6.50;72.90;;;;;;5094096;28;20606;-76
2022/02/23 02:33:20;;;;;;;5.83;4.93;;;6.40;74.70;;;;;;5095878;28;20165;-76
2022/02/23 02:35:45;;;;;;;5.00;4.50;;;6.30;75.80;;;;;;5097263;28;20205;-76
2022/02/23 02:38:12;;;;;;;4.63;4.30;;;6.20;75.40;;;;;;5097220;28;20166;-75
2022/02/23 02:40:37;;;;;;;5.57;4.80;;;6.10;77.70;;;;;;5095900;28;20652;-76
2022/02/23 02:43:05;;;;;;;5.47;4.67;;;6.20;80.90;;;;;;5097193;28;20502;-76
2022/02/23 02:45:32;;;;;;;6.40;4.43;;;6.20;78.60;;;;;;5097123;28;20863;-76
2022/02/23 02:47:58;;;;;;;5.33;5.00;;;6.20;80.10;;;;;;5096634;28;20424;-76
2022/02/23 02:50:23;;;;;;;6.70;4.80;;;6.20;78.10;;;;;;5095846;28;20410;-76
2022/02/23 02:52:49;;;;;;;5.37;4.97;;;6.30;78.70;;;;;;5096638;28;20476;-77
2022/02/23 02:55:15;;;;;;;4.70;4.40;;;6.20;79.90;;;;;;5097139;28;20564;-77
2022/02/23 02:57:40;;;;;;;5.23;4.87;;;6.20;81.70;;;;;;5096691;28;20235;-76
2022/02/23 03:00:09;;;;;;;6.27;4.87;;;6.30;81.70;;;;;;5098123;28;20174;-77
2022/02/23 03:02:35;;;;;;;4.93;4.63;;;6.20;82.00;;;;;;5096304;28;20281;-77
2022/02/23 03:05:00;;;;;;;5.87;5.37;;;6.30;82.50;;;;;;5096822;28;20867;-77
2022/02/23 03:07:26;;;;;;;6.07;5.33;;;6.30;78.70;;;;;;5096305;28;20462;-77
2022/02/23 03:09:52;;;;;;;7.10;5.60;;;6.30;75.90;;;;;;5096652;28;20407;-77
2022/02/23 03:12:19;;;;;;;7.20;5.67;;;6.30;78.30;;;;;;5096854;28;20422;-77
2022/02/23 03:14:45;;;;;;;5.47;4.97;;;6.40;78.50;;;;;;5096586;28;20690;-77
2022/02/23 03:17:11;;;;;;;6.73;5.20;;;6.40;80.40;;;;;;5096416;28;20445;-77
2022/02/23 03:19:37;;;;;;;5.40;5.00;;;6.40;79.10;;;;;;5097134;28;20403;-77
2022/02/23 03:22:03;;;;;;;5.03;4.83;;;6.40;81.00;;;;;;5097036;28;20250;-77
2022/02/23 03:24:29;;;;;;;9.00;5.23;;;6.40;79.20;;;;;;5096711;28;20184;-77
2022/02/23 03:26:54;;;;;;;6.73;5.60;;;6.50;78.90;;;;;;5097099;28;20485;-77
2022/02/23 03:29:20;;;;;;;8.33;5.00;;;6.50;76.10;;;;;;5096634;28;20173;-77
2022/02/23 03:31:45;;;;;;;6.57;5.93;;;6.50;77.10;;;;;;5097377;28;20223;-77
2022/02/23 03:34:11;;;;;;;6.83;5.97;;;6.50;78.70;;;;;;5097001;28;20227;-77
2022/02/23 03:36:37;;;;;;;7.00;6.30;;;6.50;78.70;;;;;;5097280;28;20212;-77
2022/02/23 03:39:04;;;;;;;9.97;5.70;;;6.40;78.80;;;;;;5096626;28;20540;-77
2022/02/23 03:41:30;;;;;;;6.53;6.10;;;6.40;79.00;;;;;;5095238;28;20174;-77
2022/02/23 03:43:55;;;;;;;6.60;6.03;;;6.40;79.50;;;;;;5093879;28;20775;-77
2022/02/23 03:46:21;;;;;;;6.30;5.77;;;6.40;79.30;;;;;;5093497;28;20696;-77
2022/02/23 03:48:47;;;;;;;7.60;5.73;;;6.40;78.80;;;;;;5093412;28;20178;-77
2022/02/23 03:51:27;;;;;;;10.73;5.70;;;6.30;81.90;;;;;;5093583;28;20174;-77
2022/02/23 03:53:53;;;;;;;6.80;6.30;;;6.30;81.20;;;;;;5092766;28;20169;-77
2022/02/23 03:59:06;;;;;;;6.43;5.83;;;6.30;81.10;;;;;;5112334;28;20225;-77
2022/02/23 04:01:33;;;;;;;9.20;7.00;;;6.20;81.30;;;;;;5090362;28;20798;-77
2022/02/23 04:03:59;;;;;;;6.07;5.50;;;6.20;83.00;;;;;;5093696;28;20980;-77
2022/02/23 04:06:26;;;;;;;12.93;6.03;;;6.20;84.00;;;;;;5092699;28;20462;-77
2022/02/23 04:08:52;;;;;;;6.90;6.40;;;6.20;85.00;;;;;;5092612;28;20943;-77
2022/02/23 04:11:18;;;;;;;6.30;5.80;;;6.20;86.60;;;;;;5092823;28;20802;-77
2022/02/23 04:13:44;;;;;;;6.33;5.93;;;6.20;87.30;;;;;;5092592;28;20437;-77
2022/02/23 04:16:10;;;;;;;7.13;6.50;;;6.20;86.60;;;;;;5088155;28;20435;-78
2022/02/23 04:18:36;;;;;;;7.37;5.67;;;6.20;85.40;;;;;;5080983;28;20405;-78
2022/02/23 04:21:01;;;;;;;6.60;5.93;;;6.20;86.30;;;;;;5083055;28;20298;-78
2022/02/23 04:23:27;;;;;;;8.40;6.27;;;6.10;85.00;;;;;;5082374;28;20661;-78
2022/02/23 04:25:53;;;;;;;7.00;6.30;;;6.20;84.30;;;;;;5083815;28;20261;-77
2022/02/23 04:28:18;;;;;;;6.90;6.30;;;6.20;84.70;;;;;;5089732;28;20626;-78
2022/02/23 04:30:44;;;;;;;6.07;5.77;;;6.20;82.90;;;;;;5087886;28;20603;-78
2022/02/23 04:33:10;;;;;;;6.63;6.00;;;6.30;82.30;;;;;;5077672;28;20178;-78
2022/02/23 04:35:35;;;;;;;6.63;6.03;;;6.30;82.00;;;;;;5076248;28;20175;-78
2022/02/23 04:38:01;;;;;;;8.13;6.20;;;6.30;80.90;;;;;;5082354;28;20176;-78
2022/02/23 04:40:27;;;;;;;5.97;5.57;;;6.40;83.10;;;;;;5084292;28;20179;-79
2022/02/23 04:42:53;;;;;;;8.23;6.70;;;6.40;81.90;;;;;;5078814;28;20193;-79
2022/02/23 04:45:18;;;;;;;7.87;7.00;;;6.40;79.20;;;;;;5090680;28;20174;-78
2022/02/23 04:47:44;;;;;;;7.90;6.20;;;6.40;80.90;;;;;;5084560;28;20202;-78
2022/02/23 04:50:10;;;;;;;7.33;5.90;;;6.30;82.90;;;;;;5087735;28;20178;-78
2022/02/23 04:52:36;;;;;;;7.50;6.93;;;6.40;83.60;;;;;;5081198;28;20204;-78
2022/02/23 04:55:01;;;;;;;7.47;6.57;;;6.30;83.00;;;;;;5086415;28;20180;-76
2022/02/23 04:57:27;;;;;;;6.80;6.30;;;6.20;83.80;;;;;;5085668;28;20175;-77
2022/02/23 04:59:52;;;;;;;7.60;6.90;;;6.20;83.40;;;;;;5084205;28;20182;-77
2022/02/23 05:02:18;;;;;;;7.40;6.70;;;6.20;83.00;;;;;;5086298;28;20208;-76
2022/02/23 05:04:45;;;;;;;7.73;7.23;;;6.20;82.40;;;;;;5086216;28;20202;-75
2022/02/23 05:07:11;;;;;;;7.37;6.77;;;6.30;79.70;;;;;;5085999;28;20509;-75
2022/02/23 05:09:37;;;;;;;8.00;7.30;;;6.30;78.20;;;;;;5083684;28;20405;-75
2022/02/23 05:12:04;;;;;;;8.13;7.27;;;6.20;80.10;;;;;;5085376;28;20614;-74
2022/02/23 05:14:30;;;;;;;8.07;7.33;;;6.20;81.90;;;;;;5075009;28;20458;-75
2022/02/23 05:16:55;;;;;;;8.47;7.67;;;6.20;82.60;;;;;;5074973;28;20921;-75
2022/02/23 05:19:21;;;;;;;8.47;7.67;;;6.20;81.40;;;;;;5075194;28;20175;-74
2022/02/23 05:21:46;;;;;;;10.27;8.07;;;6.20;79.60;;;;;;5075223;28;20611;-75
2022/02/23 05:24:12;;;;;;;12.03;8.20;;;6.20;81.40;;;;;;5074839;28;20174;-76
2022/02/23 05:26:38;;;;;;;8.20;7.60;;;6.20;81.10;;;;;;5075082;28;20578;-75
2022/02/23 05:29:03;;;;;;;7.73;7.23;;;6.10;82.10;;;;;;5075100;28;20167;-76
2022/02/23 05:31:29;;;;;;;7.90;7.10;;;6.00;80.90;;;;;;5074239;28;20266;-76
2022/02/23 05:33:55;;;;;;;8.57;7.77;;;6.00;81.60;;;;;;5074593;28;20171;-76
2022/02/23 05:36:20;;;;;;;8.33;7.57;;;6.00;81.60;;;;;;5075005;28;20178;-77
2022/02/23 05:38:46;;;;;;;9.07;8.47;;;5.90;80.60;;;;;;5074498;28;20179;-76
2022/02/23 05:41:11;;;;;;;7.93;7.37;;;6.00;80.20;;;;;;5074546;28;20175;-75
2022/02/23 05:43:37;;;;;;;7.87;7.47;;;6.00;79.60;;;;;;5074449;28;20658;-75
2022/02/23 05:46:03;;;;;;;12.80;8.20;;;6.00;78.90;;;;;;5092368;28;20198;-76
2022/02/23 05:48:28;;;;;;;10.60;7.73;;;5.90;78.30;;;;;;5074561;28;20171;-76
2022/02/23 05:50:54;;;;;;;8.67;8.00;;;5.80;78.30;;;;;;5074820;28;20175;-77
2022/02/23 05:53:20;;;;;;;8.93;7.60;;;5.80;78.20;;;;;;5074211;28;20278;-75
2022/02/23 05:55:45;;;;;;;8.80;7.10;;;5.80;78.20;;;;;;5074587;28;20205;-76
2022/02/23 05:58:11;;;;;;;8.80;7.57;;;5.70;79.00;;;;;;5074561;28;20540;-76
2022/02/23 06:00:36;;;;;;;9.37;8.47;;;5.70;78.30;;;;;;5074653;28;20174;-76
2022/02/23 06:03:06;;;;;;;8.60;7.70;;;5.70;78.20;;;;;;5074359;28;20603;-76
2022/02/23 06:05:32;;;;;;;7.90;7.10;;;5.70;78.60;;;;;;5073994;28;20166;-77
2022/02/23 06:07:57;;;;;;;10.17;8.20;;;5.70;79.70;;;;;;5073599;28;20988;-77
2022/02/23 06:10:25;;;;;;;10.60;7.90;;;5.70;79.50;;;;;;5074336;28;20170;-77
2022/02/23 06:12:51;;;;;;;8.80;8.00;;;5.60;80.40;;;;;;5074230;28;20189;-77
2022/02/23 06:15:17;;;;;;;8.07;7.40;;;5.60;81.50;;;;;;5074502;28;20967;-77
2022/02/23 06:17:43;;;;;;;7.93;7.40;;;5.70;81.00;;;;;;5074401;28;20536;-76
2022/02/23 06:20:09;;;;;;;12.57;8.73;;;5.60;80.00;;;;;;5074325;28;20485;-77
2022/02/23 06:22:35;;;;;;;9.67;8.87;;;5.70;79.80;;;;;;5073765;28;20707;-77
2022/02/23 06:25:01;;;;;;;9.57;8.67;;;5.70;79.40;;;;;;5074345;28;20773;-77
2022/02/23 06:27:27;;;;;;;8.40;7.73;;;5.70;80.40;;;;;;5074431;28;20460;-77
2022/02/23 06:29:52;;;;;;;8.97;8.17;;;5.60;80.40;;;;;;5074398;28;20197;-77
2022/02/23 06:32:18;;;;;;;8.20;7.43;;;5.70;80.20;;;;;;5074297;28;20175;-77
2022/02/23 06:34:43;;;;;;;7.20;6.70;;;5.60;81.10;;;;;;5074428;28;20181;-78
2022/02/23 06:37:09;;;;;;;8.33;7.50;;;5.60;83.00;;;;;;5074410;28;20535;-78
2022/02/23 06:39:38;;;;;;;9.90;7.60;;;5.70;82.60;;;;;;5074414;28;20175;-78
2022/02/23 06:42:04;;;;;;;8.70;7.80;;;5.70;83.00;;;;;;5074579;28;20185;-80
2022/02/23 06:44:31;;;;;;;9.00;8.20;;;5.70;81.60;;;;;;5073989;28;20444;-80
2022/02/23 06:46:59;;;;;;;7.90;7.50;;;5.70;81.10;;;;;;5074456;28;20468;-80
2022/02/23 06:49:28;;;;;;;8.73;7.83;;;5.80;82.10;;;;;;5074681;28;20408;-80
2022/02/23 06:51:58;;;;;;;8.50;7.73;;;5.80;79.80;;;;;;5073999;28;20409;-80
2022/02/23 06:54:25;;;;;;;8.30;7.70;;;5.90;78.30;;;;;;5074470;28;21063;-80
2022/02/23 06:56:51;;;;;;;8.50;7.80;;;5.80;78.30;;;;;;5074603;28;20452;-78
2022/02/23 06:59:17;;;;;;;9.37;8.50;;;5.80;78.30;;;;;;5074232;28;20832;-78
2022/02/23 07:01:42;;;;;;;9.07;8.30;;;5.70;78.20;;;;;;5074325;28;20174;-78
2022/02/23 07:04:09;;;;;;;8.57;7.87;;;5.70;79.20;;;;;;5074190;28;20217;-77
2022/02/23 07:06:35;;;;;;;9.50;8.90;;;5.70;78.70;;;;;;5073922;28;20210;-78
2022/02/23 07:09:04;;;;;;;9.30;8.60;;;5.70;79.10;;;;;;5074392;28;20434;-77
2022/02/23 07:11:34;;;;;;;8.60;7.90;;;5.80;79.30;;;;;;5091460;28;20186;-78
2022/02/23 07:14:03;;;;;;;9.20;8.33;;;5.70;78.50;;;;;;5057783;28;20413;-79
2022/02/23 07:16:29;;;;;;;10.23;9.50;;;5.80;78.30;;;;;;5074057;28;20456;-80
2022/02/23 07:19:08;;;;;;;9.00;8.20;;;5.70;78.70;;;;;;5096255;28;20790;-80
2022/02/23 07:21:34;;;;;;;9.87;8.37;;;5.80;79.30;;;;;;5062647;28;20481;-81
2022/02/23 07:24:01;;;;;;;9.70;8.80;;;5.80;79.10;;;;;;5077570;28;20491;-80
2022/02/23 07:26:27;;;;;;;8.70;8.10;;;5.80;79.20;;;;;;5078100;28;20452;-79
2022/02/23 07:28:53;;;;;;;10.23;9.10;;;5.80;80.00;;;;;;5077756;28;20777;-80
2022/02/23 07:31:18;;;;;;;15.40;8.87;;;5.90;80.00;;;;;;5077885;28;20412;-80
2022/02/23 07:33:45;;;;;;;10.83;9.83;;;5.90;80.00;;;;;;5079731;28;20166;-80
2022/02/23 07:36:11;;;;;;;9.53;8.67;;;5.90;80.40;;;;;;5091637;28;20182;-80
2022/02/23 07:38:38;;;;;;;10.20;9.20;;;5.90;82.00;;;;;;5115853;28;20471;-80
2022/02/23 07:41:08;;;;;;;9.57;8.77;;;5.90;82.80;;;;;;5098251;28;20418;-79
2022/02/23 07:43:34;;;;;;;9.50;8.80;;;6.00;83.10;;;;;;5097621;28;20972;-79
2022/02/23 07:46:05;;;;;;;9.90;9.10;;;6.00;82.20;;;;;;5098144;28;20495;-80
2022/02/23 07:48:32;;;;;;;10.10;9.30;;;6.10;81.10;;;;;;5098124;28;20404;-80
2022/02/23 07:50:58;;;;;;;10.20;9.20;;;6.10;80.50;;;;;;5097786;28;20443;-81
2022/02/23 07:53:26;;;;;;;10.73;9.80;;;6.10;79.50;;;;;;5097526;28;20896;-81
2022/02/23 07:55:52;;;;;;;9.53;8.60;;;6.10;79.70;;;;;;5097757;28;20672;-81
2022/02/23 07:58:18;;;;;;;15.17;10.13;;;6.20;80.30;;;;;;5097791;28;20837;-82
2022/02/23 08:00:43;;;;;;;10.90;9.90;;;6.30;80.80;;;;;;5097350;28;20412;-81
2022/02/23 08:03:09;;;;;;;16.47;9.77;;;6.30;81.50;;;;;;5097627;28;20222;-82
2022/02/23 08:05:35;;;;;;;9.67;8.97;;;6.40;81.90;;;;;;5097522;28;20268;-82
2022/02/23 08:08:01;;;;;;;13.30;10.43;;;6.40;82.10;;;;;;5096628;28;20430;-81
2022/02/23 08:10:28;;;;;;;9.33;8.43;;;6.50;84.30;;;;;;5097660;28;20197;-82
2022/02/23 08:12:55;;;;;;;7.97;7.43;;;6.50;83.70;;;;;;5096855;28;20407;-82
2022/02/23 08:20:52;;;;;;;9.20;8.30;;;6.60;84.10;;;;;;5115296;28;20500;-82
2022/02/23 08:23:18;;;;;;;8.63;7.83;;;6.60;84.60;;;;;;5097106;28;20526;-82
2022/02/23 08:25:44;;;;;;;8.50;7.90;;;6.70;86.20;;;;;;5096820;28;20502;-81
2022/02/23 08:28:10;;;;;;;8.27;7.57;;;6.70;83.20;;;;;;5096178;28;20418;-81
2022/02/23 08:30:36;;;;;;;9.13;8.37;;;6.80;84.20;;;;;;5096842;28;20419;-80
2022/02/23 08:33:03;;;;;;;8.73;8.03;;;6.80;85.60;;;;;;5097204;28;20543;-81
2022/02/23 08:35:30;;;;;;;7.90;7.13;;;6.90;86.20;;;;;;5096888;28;20169;-81
2022/02/23 08:37:56;;;;;;;16.33;8.03;;;6.90;85.20;;;;;;5113339;28;20935;-76
2022/02/23 08:40:22;;;;;;;7.33;6.80;;;6.90;84.30;;;;;;5095909;28;20454;-75
2022/02/23 08:42:47;;;;;;;7.80;7.20;;;7.00;84.80;;;;;;5094861;28;20847;-76
2022/02/23 08:45:13;;;;;;;7.73;7.00;;;7.00;83.80;;;;;;5095891;28;20474;-76
2022/02/23 08:47:39;;;;;;;7.00;6.50;;;7.00;83.90;;;;;;5094785;28;20213;-76
2022/02/23 08:50:05;;;;;;;8.33;6.53;;;7.10;79.40;;;;;;5095611;28;20340;-76
2022/02/23 08:52:31;;;;;;;6.63;5.57;;;7.20;79.40;;;;;;5095250;28;20668;-76
2022/02/23 08:54:57;;;;;;;7.63;7.00;;;7.20;77.40;;;;;;5095274;28;20414;-76
2022/02/23 08:57:22;;;;;;;6.83;6.30;;;7.30;77.00;;;;;;5095395;28;20192;-76
2022/02/23 08:59:48;;;;;;;5.93;5.60;;;7.40;79.70;;;;;;5095033;28;20573;-76
2022/02/23 09:02:13;;;;;;;7.23;6.50;;;7.40;78.90;;;;;;5095544;28;20210;-76
2022/02/23 09:04:39;;;;;;;6.93;6.17;;;7.50;81.90;;;;;;5094968;28;20178;-76
2022/02/23 09:07:05;;;;;;;7.13;6.10;;;7.50;82.90;;;;;;5095426;28;20581;-76
2022/02/23 09:09:30;;;;;;;13.67;9.10;;;7.50;82.80;;;;;;5095309;28;20272;-76
2022/02/23 09:11:57;;;;;;;12.70;7.40;;;7.50;80.10;;;;;;5095338;28;20178;-76
2022/02/23 09:14:22;;;;;;;11.77;8.90;;;7.60;80.40;;;;;;5094846;28;20170;-76
2022/02/23 09:16:48;;;;;;;9.30;8.43;;;7.50;77.90;;;;;;5094873;28;20775;-76
2022/02/23 09:19:14;;;;;;;10.07;9.03;;;7.60;77.80;;;;;;5092169;28;20468;-76
2022/02/23 09:21:41;;;;;;;9.23;8.50;;;7.60;78.10;;;;;;5085535;28;20421;-76
2022/02/23 09:24:07;;;;;;;10.77;9.00;;;7.60;73.40;;;;;;5079207;28;20280;-76
2022/02/23 09:26:33;;;;;;;8.60;7.20;;;7.60;78.00;;;;;;5074004;28;20459;-76
2022/02/23 09:28:59;;;;;;;7.13;6.67;;;7.60;74.60;;;;;;5078954;28;20420;-76
2022/02/23 09:31:25;;;;;;;8.10;7.13;;;7.70;69.10;;;;;;5095175;28;20446;-76
2022/02/23 09:33:51;;;;;;;8.47;7.67;;;7.80;71.80;;;;;;5094379;28;20208;-76
2022/02/23 09:36:18;;;;;;;7.53;7.20;;;7.90;74.10;;;;;;5094413;28;20423;-76
2022/02/23 09:38:44;;;;;;;8.40;7.63;;;7.90;73.00;;;;;;5094722;28;20411;-81
2022/02/23 09:41:13;;;;;;;7.40;6.67;;;8.10;70.10;;;;;;5088287;28;20420;-81
2022/02/23 09:43:39;;;;;;;8.63;7.93;;;8.20;69.10;;;;;;5075111;28;20420;-81
2022/02/23 09:46:06;;;;;;;7.37;6.90;;;8.30;68.00;;;;;;5074688;28;20466;-81
2022/02/23 09:48:32;;;;;;;7.70;6.60;;;8.40;69.60;;;;;;5078009;28;20179;-81
2022/02/23 09:50:59;;;;;;;7.60;6.83;;;8.40;70.80;;;;;;5083981;28;20424;-84
2022/02/23 09:53:25;;;;;;;7.73;7.13;;;8.40;69.20;;;;;;5085656;28;20416;-81
2022/02/23 09:55:56;;;;;;;7.57;6.97;;;8.30;62.90;;;;;;5084690;28;20420;-76
2022/02/23 09:58:23;;;;;;;9.10;6.70;;;8.40;70.10;;;;;;5084635;28;20417;-76
2022/02/23 10:00:49;;;;;;;7.30;6.70;;;8.40;70.40;;;;;;5082726;28;20803;-76
2022/02/23 10:03:16;;;;;;;7.73;7.10;;;8.40;73.00;;;;;;5083805;28;20790;-76
2022/02/23 10:05:46;;;;;;;6.07;5.53;;;8.50;71.90;;;;;;5103455;28;20426;-76
2022/02/23 10:08:12;;;;;;;6.23;5.63;;;8.60;72.20;;;;;;5097156;28;20499;-76
2022/02/23 10:10:41;;;;;;;6.77;6.17;;;8.60;71.70;;;;;;5093828;28;20423;-74
2022/02/23 10:13:08;;;;;;;8.73;5.90;;;8.60;67.00;;;;;;5093849;28;20412;-76
2022/02/23 10:15:42;;;;;;;6.33;5.93;;;8.60;69.60;;;;;;5093817;28;20523;-76
2022/02/23 10:18:17;;;;;;;6.60;6.20;;;8.60;70.40;;;;;;5093932;28;20432;-77
2022/02/23 10:20:43;;;;;;;10.00;6.57;;;8.70;69.50;;;;;;5093867;28;20421;-77
2022/02/23 10:23:20;;;;;;;9.20;6.67;;;8.80;65.50;;;;;;5094284;28;20507;-76
2022/02/23 10:26:05;;;;;;;9.47;6.60;;;8.90;63.40;;;;;;5094291;28;20412;-76
2022/02/23 10:28:34;;;;;;;6.50;6.13;;;9.10;58.80;;;;;;5094095;28;20477;-76
2022/02/23 10:31:03;;;;;;;6.43;6.10;;;9.20;59.30;;;;;;5094243;28;20419;-75
2022/02/23 10:33:34;;;;;;;5.93;5.73;;;9.30;61.80;;;;;;5093251;28;20420;-76
2022/02/23 10:36:02;;;;;;;6.33;5.93;;;9.30;57.90;;;;;;5094334;28;20412;-76
2022/02/23 10:38:33;;;;;;;5.60;5.40;;;9.50;56.20;;;;;;5093946;28;20408;-77
2022/02/23 10:41:02;;;;;;;5.77;5.47;;;9.80;50.20;;;;;;5093679;28;20415;-75
2022/02/23 10:43:34;;;;;;;6.57;5.90;;;9.80;57.20;;;;;;5110633;28;20412;-75
2022/02/23 10:46:21;;;;;;;7.37;5.93;;;9.80;54.30;;;;;;5110809;28;20412;-75
2022/02/23 10:48:55;;;;;;;4.90;4.63;;;9.80;54.80;;;;;;5110174;28;20416;-75
2022/02/23 10:51:24;;;;;;;5.57;5.27;;;10.00;47.00;;;;;;5112096;28;20925;-75
2022/02/23 10:53:51;;;;;;;5.93;5.60;;;10.10;46.60;;;;;;5114702;28;20420;-75
2022/02/23 10:56:25;;;;;;;7.03;5.83;;;10.00;52.30;;;;;;5107830;28;20444;-75
2022/02/23 10:59:15;;;;;;;6.10;5.50;;;10.00;49.10;;;;;;5097852;28;20461;-75
2022/02/23 11:01:43;;;;;;;5.80;5.57;;;9.80;54.60;;;;;;5097788;28;20411;-75
2022/02/23 11:04:09;;;;;;;6.07;5.77;;;9.70;56.10;;;;;;5097462;28;20500;-77
2022/02/23 11:06:36;;;;;;;7.03;6.53;;;9.60;55.40;;;;;;5087138;28;20495;-75
2022/02/23 11:09:03;;;;;;;8.63;6.43;;;9.50;54.30;;;;;;5077031;28;20775;-75
2022/02/23 11:11:30;;;;;;;6.07;5.77;;;9.40;53.70;;;;;;5076320;28;20447;-76
2022/02/23 11:13:57;;;;;;;6.30;6.00;;;9.50;53.80;;;;;;5077180;28;20466;-75
2022/02/23 11:16:23;;;;;;;10.53;5.80;;;9.60;51.40;;;;;;5076990;28;20440;-76
2022/02/23 11:18:49;;;;;;;6.10;5.70;;;9.80;47.50;;;;;;5087898;28;20488;-76
2022/02/23 11:21:19;;;;;;;6.67;5.47;;;10.00;49.70;;;;;;5114311;28;20412;-76
2022/02/23 11:23:46;;;;;;;7.33;5.47;;;10.20;41.80;;;;;;5114408;28;20181;-76
2022/02/23 11:26:18;;;;;;;6.13;5.83;;;10.20;41.40;;;;;;5114396;28;20455;-76
2022/02/23 11:28:58;;;;;;;6.00;5.60;;;10.10;49.20;;;;;;5113805;28;20503;-76
2022/02/23 11:31:24;;;;;;;5.63;5.30;;;10.20;44.90;;;;;;5095504;28;20476;-75
2022/02/23 11:33:50;;;;;;;6.23;5.83;;;10.30;45.20;;;;;;5115664;28;20407;-75
2022/02/23 11:36:19;;;;;;;6.43;6.03;;;10.20;50.10;;;;;;5116166;28;20411;-75
2022/02/23 11:38:49;;;;;;;6.07;5.67;;;10.10;51.50;;;;;;5091598;28;20193;-75
2022/02/23 11:41:36;;;;;;;6.10;5.70;;;10.20;43.10;;;;;;5077243;28;20425;-75
2022/02/23 11:44:08;;;;;;;6.83;6.33;;;10.30;45.60;;;;;;5076791;28;20520;-75
2022/02/23 11:46:52;;;;;;;6.53;6.03;;;10.40;42.30;;;;;;5076978;28;20448;-75
2022/02/23 11:49:24;;;;;;;6.63;6.10;;;10.40;43.50;;;;;;5076496;28;20427;-75
2022/02/23 11:52:14;;;;;;;6.10;5.70;;;10.30;49.70;;;;;;5076400;28;20778;-76
2022/02/23 11:55:18;;;;;;;6.47;5.90;;;10.20;48.00;;;;;;5076113;28;20849;-75
2022/02/23 11:57:51;;;;;;;6.00;5.80;;;10.30;47.70;;;;;;5092447;28;20459;-76
2022/02/23 12:00:29;;;;;;;5.43;5.23;;;10.60;42.00;;;;;;5084383;28;20805;-75
2022/02/23 12:03:02;;;;;;;5.83;5.53;;;10.50;40.10;;;;;;5095364;28;20430;-75
2022/02/23 12:05:36;;;;;;;5.27;5.07;;;10.40;42.50;;;;;;5096488;28;20424;-76
2022/02/23 12:08:02;;;;;;;6.90;6.17;;;10.50;43.50;;;;;;5096456;28;20555;-76
2022/02/23 12:10:30;;;;;;;4.90;4.70;;;10.40;44.10;;;;;;5095905;28;20412;-76
2022/02/23 12:12:56;;;;;;;5.47;5.10;;;10.50;45.60;;;;;;5095935;28;20507;-75
2022/02/23 12:15:40;;;;;;;5.37;5.13;;;10.50;48.30;;;;;;5096605;28;20420;-75
2022/02/23 12:18:17;;;;;;;6.30;5.40;;;10.40;48.50;;;;;;5095947;28;20483;-75
2022/02/23 12:20:42;;;;;;;8.27;5.70;;;10.30;46.80;;;;;;5096369;28;20422;-75
2022/02/23 12:23:17;;;;;;;6.40;5.90;;;10.30;50.70;;;;;;5095999;28;20911;-75
2022/02/23 12:25:55;;;;;;;7.00;6.40;;;10.20;49.40;;;;;;5095931;28;20505;-76
2022/02/23 12:28:33;;;;;;;5.87;5.67;;;10.10;48.50;;;;;;5095976;28;20427;-76
2022/02/23 12:31:06;;;;;;;6.40;6.00;;;10.10;45.40;;;;;;5096089;28;20407;-76
2022/02/23 12:33:33;;;;;;;8.67;5.50;;;10.30;45.90;;;;;;5095298;28;20778;-76
2022/02/23 12:36:08;;;;;;;5.43;5.03;;;10.40;44.10;;;;;;5095764;28;20412;-76
2022/02/23 12:38:35;;;;;;;6.23;5.67;;;10.60;42.70;;;;;;5095800;28;20729;-76
2022/02/23 12:41:14;;;;;;;11.00;5.50;;;10.60;42.50;;;;;;5095719;28;20412;-76
2022/02/23 12:43:40;;;;;;;6.68;6.07;;;10.50;43.40;;;;;;5094886;28;20762;-76
2022/02/23 12:46:08;;;;;;;5.87;5.57;;;10.60;45.00;;;;;;5095772;28;20170;-76
2022/02/23 12:48:35;;;;;;;6.20;5.70;;;10.70;44.30;;;;;;5095429;28;20419;-76
2022/02/23 12:51:06;;;;;;;6.67;6.07;;;10.60;44.70;;;;;;5095830;28;20767;-76
2022/02/23 12:53:40;;;;;;;6.07;5.73;;;10.60;42.10;;;;;;5095314;28;20472;-75
2022/02/23 12:56:27;;;;;;;7.20;6.50;;;10.60;42.60;;;;;;5095032;28;20434;-76
2022/02/23 12:58:56;;;;;;;5.03;4.73;;;11.00;39.30;;;;;;5095525;28;20404;-75
2022/02/23 13:01:27;;;;;;;5.30;5.07;;;10.90;42.40;;;;;;5095281;28;20399;-75
2022/02/23 13:03:57;;;;;;;5.70;5.20;;;10.90;43.60;;;;;;5091567;28;20812;-76